Time,TemperatureF,DewpointF,PressureIn,WindDirection,WindDirectionDegrees,WindSpeedMPH,WindSpeedGustMPH,Humidity,HourlyPrecipIn,Conditions,Clouds,dailyrainin,SoftwareType,DateUTC
2013-02-16 00:03:00,36.3,27.8,30.44,NNE,18,3.0,7.0,71,0.00,,---,0.00,VWS V14.01,2013-02-16 06:03:00,
2013-02-16 00:09:00,36.3,27.5,30.45,North,356,6.0,7.0,70,0.00,,---,0.00,VWS V14.01,2013-02-16 06:09:00,
2013-02-16 00:14:00,36.4,27.6,30.44,North,4,4.0,9.0,70,0.00,,---,0.00,VWS V14.01,2013-02-16 06:14:00,
2013-02-16 00:19:00,36.3,27.5,30.44,NE,41,4.0,9.0,70,0.00,,---,0.00,VWS V14.01,2013-02-16 06:19:00,
2013-02-16 00:24:00,36.0,27.5,30.43,NE,51,2.0,9.0,71,0.00,,---,0.00,VWS V14.01,2013-02-16 06:24:00,
2013-02-16 00:29:00,35.8,27.0,30.43,NE,47,0.0,9.0,70,0.00,,---,0.00,VWS V14.01,2013-02-16 06:29:00,
2013-02-16 00:34:00,35.4,27.0,30.43,NE,47,0.0,0.0,71,0.00,,---,0.00,VWS V14.01,2013-02-16 06:34:00,
2013-02-16 00:39:00,35.1,26.7,30.43,SE,143,1.0,1.0,71,0.00,,---,0.00,VWS V14.01,2013-02-16 06:39:00,
2013-02-16 00:44:00,34.7,26.6,30.43,SSE,152,3.0,3.0,72,0.00,,---,0.00,VWS V14.01,2013-02-16 06:44:00,
2013-02-16 00:49:00,34.0,26.9,30.42,SE,138,2.0,3.0,75,0.00,,---,0.00,VWS V14.01,2013-02-16 06:49:00,
2013-02-16 00:55:00,33.8,27.0,30.42,SE,135,2.0,3.0,76,0.00,,---,0.00,VWS V14.01,2013-02-16 06:55:00,
2013-02-16 01:00:00,33.7,27.0,30.42,SSE,165,1.0,3.0,76,0.00,,---,0.00,VWS V14.01,2013-02-16 07:00:00,
2013-02-16 01:05:00,33.1,26.7,30.42,SSW,198,2.0,2.0,77,0.00,,---,0.00,VWS V14.01,2013-02-16 07:05:00,
2013-02-16 01:10:00,32.5,26.7,30.42,SW,215,2.0,4.0,79,0.00,,---,0.00,VWS V14.01,2013-02-16 07:10:00,
2013-02-16 01:15:00,32.2,26.1,30.42,SW,215,2.0,4.0,78,0.00,,---,0.00,VWS V14.01,2013-02-16 07:15:00,
2013-02-16 01:20:00,31.4,25.6,30.42,SSE,155,2.0,4.0,79,0.00,,---,0.00,VWS V14.01,2013-02-16 07:20:00,
2013-02-16 01:25:00,30.7,25.6,30.42,SSE,156,1.0,4.0,81,0.00,,---,0.00,VWS V14.01,2013-02-16 07:25:00,
2013-02-16 01:30:00,30.1,25.6,30.42,SSW,193,3.0,4.0,83,0.00,,---,0.00,VWS V14.01,2013-02-16 07:30:00,
2013-02-16 01:36:00,29.8,25.6,30.42,SSW,198,3.0,3.0,84,0.00,,---,0.00,VWS V14.01,2013-02-16 07:36:00,
2013-02-16 01:41:00,29.7,25.8,30.42,SSW,207,3.0,3.0,85,0.00,,---,0.00,VWS V14.01,2013-02-16 07:41:00,
2013-02-16 01:46:00,29.7,25.8,30.42,SSW,200,1.0,4.0,85,0.00,,---,0.00,VWS V14.01,2013-02-16 07:46:00,
2013-02-16 01:51:00,29.6,25.6,30.42,South,190,2.0,4.0,85,0.00,,---,0.00,VWS V14.01,2013-02-16 07:51:00,
2013-02-16 01:56:00,29.3,25.6,30.42,South,181,2.0,4.0,86,0.00,,---,0.00,VWS V14.01,2013-02-16 07:56:00,
2013-02-16 02:01:00,29.2,25.5,30.42,SSW,210,1.0,1.0,86,0.00,,---,0.00,VWS V14.01,2013-02-16 08:01:00,
2013-02-16 02:06:00,29.2,25.8,30.41,South,169,1.0,2.0,87,0.00,,---,0.00,VWS V14.01,2013-02-16 08:06:00,
2013-02-16 02:12:00,29.2,25.8,30.41,SSE,163,1.0,2.0,87,0.00,,---,0.00,VWS V14.01,2013-02-16 08:12:00,
2013-02-16 02:17:00,29.1,25.7,30.41,South,177,2.0,3.0,87,0.00,,---,0.00,VWS V14.01,2013-02-16 08:17:00,
2013-02-16 02:22:00,29.2,25.8,30.41,SSW,198,2.0,3.0,87,0.00,,---,0.00,VWS V14.01,2013-02-16 08:22:00,
2013-02-16 02:27:00,29.2,26.1,30.41,SSW,208,2.0,4.0,88,0.00,,---,0.00,VWS V14.01,2013-02-16 08:27:00,
2013-02-16 02:32:00,29.3,26.2,30.41,SW,226,3.0,3.0,88,0.00,,---,0.00,VWS V14.01,2013-02-16 08:32:00,
2013-02-16 02:37:00,29.5,26.1,30.41,SSW,207,2.0,5.0,87,0.00,,---,0.00,VWS V14.01,2013-02-16 08:37:00,
2013-02-16 02:42:00,30.0,26.6,30.41,SW,217,3.0,5.0,87,0.00,,---,0.00,VWS V14.01,2013-02-16 08:42:00,
2013-02-16 02:47:00,30.0,26.0,30.41,SSW,196,0.0,5.0,85,0.00,,---,0.00,VWS V14.01,2013-02-16 08:47:00,
2013-02-16 02:53:00,29.7,26.0,30.41,SSE,150,1.0,5.0,86,0.00,,---,0.00,VWS V14.01,2013-02-16 08:53:00,
2013-02-16 02:58:00,29.8,26.1,30.40,South,176,3.0,5.0,86,0.00,,---,0.00,VWS V14.01,2013-02-16 08:58:00,
2013-02-16 03:03:00,29.9,26.2,30.41,South,186,3.0,4.0,86,0.00,,---,0.00,VWS V14.01,2013-02-16 09:03:00,
2013-02-16 03:08:00,29.9,26.2,30.41,South,184,3.0,4.0,86,0.00,,---,0.00,VWS V14.01,2013-02-16 09:08:00,
2013-02-16 03:13:00,29.8,26.1,30.41,SSW,198,3.0,4.0,86,0.00,,---,0.00,VWS V14.01,2013-02-16 09:13:00,
2013-02-16 03:18:00,29.7,25.8,30.41,SW,215,3.0,4.0,85,0.00,,---,0.00,VWS V14.01,2013-02-16 09:18:00,
2013-02-16 03:23:00,30.0,26.0,30.41,SW,214,3.0,4.0,85,0.00,,---,0.00,VWS V14.01,2013-02-16 09:23:00,
2013-02-16 03:29:00,30.4,26.1,30.40,SW,224,3.0,4.0,84,0.00,,---,0.00,VWS V14.01,2013-02-16 09:29:00,
2013-02-16 03:34:00,30.4,25.9,30.41,SSW,201,2.0,3.0,83,0.00,,---,0.00,VWS V14.01,2013-02-16 09:34:00,
2013-02-16 03:39:00,30.1,25.9,30.41,SW,224,1.0,4.0,84,0.00,,---,0.00,VWS V14.01,2013-02-16 09:39:00,
2013-02-16 03:44:00,29.9,26.0,30.42,North,354,7.0,13.0,85,0.00,,---,0.00,VWS V14.01,2013-02-16 09:44:00,
2013-02-16 03:49:00,30.7,26.5,30.42,NNE,16,10.0,13.0,84,0.00,,---,0.00,VWS V14.01,2013-02-16 09:49:00,
2013-02-16 03:54:00,31.3,26.8,30.42,North,7,6.0,13.0,83,0.00,,---,0.00,VWS V14.01,2013-02-16 09:54:00,
2013-02-16 03:59:00,31.2,26.4,30.42,NNE,15,7.0,13.0,82,0.00,,---,0.00,VWS V14.01,2013-02-16 09:59:00,
2013-02-16 04:04:00,30.7,26.2,30.42,NNW,345,4.0,8.0,83,0.00,,---,0.00,VWS V14.01,2013-02-16 10:04:00,
2013-02-16 04:10:00,30.2,26.0,30.42,North,8,7.0,8.0,84,0.00,,---,0.00,VWS V14.01,2013-02-16 10:10:00,
2013-02-16 04:15:00,30.1,25.9,30.41,NNW,340,3.0,8.0,84,0.00,,---,0.00,VWS V14.01,2013-02-16 10:15:00,
2013-02-16 04:20:00,30.2,26.0,30.41,North,360,4.0,8.0,84,0.00,,---,0.00,VWS V14.01,2013-02-16 10:20:00,
2013-02-16 04:25:00,30.1,25.9,30.41,North,8,3.0,8.0,84,0.00,,---,0.00,VWS V14.01,2013-02-16 10:25:00,
2013-02-16 04:30:00,29.9,25.7,30.42,NNW,336,0.0,8.0,84,0.00,,---,0.00,VWS V14.01,2013-02-16 10:30:00,
2013-02-16 04:35:00,29.7,25.8,30.42,NE,42,0.0,0.0,85,0.00,,---,0.00,VWS V14.01,2013-02-16 10:35:00,
2013-02-16 04:40:00,29.3,25.4,30.41,NE,47,0.0,0.0,85,0.00,,---,0.00,VWS V14.01,2013-02-16 10:40:00,
2013-02-16 04:45:00,29.0,25.4,30.42,NE,44,1.0,2.0,86,0.00,,---,0.00,VWS V14.01,2013-02-16 10:45:00,
2013-02-16 04:50:00,28.8,25.1,30.42,SW,226,1.0,3.0,86,0.00,,---,0.00,VWS V14.01,2013-02-16 10:50:00,
2013-02-16 04:56:00,28.6,25.2,30.42,SW,235,0.0,3.0,87,0.00,,---,0.00,VWS V14.01,2013-02-16 10:56:00,
2013-02-16 05:01:00,28.6,25.2,30.43,WSW,243,0.0,0.0,87,0.00,,---,0.00,VWS V14.01,2013-02-16 11:01:00,
2013-02-16 05:06:00,28.7,25.3,30.43,WNW,283,1.0,1.0,87,0.00,,---,0.00,VWS V14.01,2013-02-16 11:06:00,
2013-02-16 05:11:00,28.7,25.3,30.43,WNW,284,1.0,1.0,87,0.00,,---,0.00,VWS V14.01,2013-02-16 11:11:00,
2013-02-16 05:16:00,28.6,25.5,30.43,WNW,286,0.0,2.0,88,0.00,,---,0.00,VWS V14.01,2013-02-16 11:16:00,
2013-02-16 05:21:00,28.5,25.1,30.43,NW,321,2.0,2.0,87,0.00,,---,0.00,VWS V14.01,2013-02-16 11:21:00,
2013-02-16 05:26:00,28.3,25.2,30.43,NW,326,1.0,3.0,88,0.00,,---,0.00,VWS V14.01,2013-02-16 11:26:00,
2013-02-16 05:32:00,28.2,25.1,30.43,NNW,338,0.0,1.0,88,0.00,,---,0.00,VWS V14.01,2013-02-16 11:32:00,
2013-02-16 05:37:00,28.1,25.3,30.43,NNW,338,0.0,1.0,89,0.00,,---,0.00,VWS V14.01,2013-02-16 11:37:00,
2013-02-16 05:42:00,27.9,25.1,30.43,NNW,338,0.0,1.0,89,0.00,,---,0.00,VWS V14.01,2013-02-16 11:42:00,
2013-02-16 05:47:00,27.7,24.9,30.43,NNW,337,0.0,1.0,89,0.00,,---,0.00,VWS V14.01,2013-02-16 11:47:00,
2013-02-16 05:52:00,27.5,24.7,30.43,NNW,338,0.0,1.0,89,0.00,,---,0.00,VWS V14.01,2013-02-16 11:52:00,
2013-02-16 05:57:00,27.4,24.9,30.43,NNW,328,0.0,1.0,90,0.00,,---,0.00,VWS V14.01,2013-02-16 11:57:00,
2013-02-16 06:02:00,27.5,25.0,30.43,NNW,328,0.0,0.0,90,0.00,,---,0.00,VWS V14.01,2013-02-16 12:02:00,
2013-02-16 06:07:00,27.6,25.1,30.44,NNW,328,0.0,0.0,90,0.00,,---,0.00,VWS V14.01,2013-02-16 12:07:00,
2013-02-16 06:13:00,27.3,24.8,30.43,NNW,328,0.0,0.0,90,0.00,,---,0.00,VWS V14.01,2013-02-16 12:13:00,
2013-02-16 06:18:00,27.3,25.0,30.43,NNW,346,2.0,3.0,91,0.00,,---,0.00,VWS V14.01,2013-02-16 12:18:00,
2013-02-16 06:23:00,27.4,25.1,30.44,NNW,330,2.0,3.0,91,0.00,,---,0.00,VWS V14.01,2013-02-16 12:23:00,
2013-02-16 06:28:00,27.4,25.1,30.44,NNW,328,2.0,3.0,91,0.00,,---,0.00,VWS V14.01,2013-02-16 12:28:00,
2013-02-16 06:33:00,27.5,25.5,30.44,North,350,4.0,4.0,92,0.00,,---,0.00,VWS V14.01,2013-02-16 12:33:00,
2013-02-16 06:38:00,27.7,25.7,30.44,NNW,327,1.0,4.0,92,0.00,,---,0.00,VWS V14.01,2013-02-16 12:38:00,
2013-02-16 06:43:00,27.9,26.1,30.44,NW,321,3.0,6.0,93,0.00,,---,0.00,VWS V14.01,2013-02-16 12:43:00,
2013-02-16 06:48:00,28.0,26.2,30.44,NW,322,4.0,6.0,93,0.00,,---,0.00,VWS V14.01,2013-02-16 12:48:00,
2013-02-16 06:54:00,27.9,26.1,30.44,NW,323,4.0,6.0,93,0.00,,---,0.00,VWS V14.01,2013-02-16 12:54:00,
2013-02-16 06:59:00,27.8,26.0,30.43,WNW,293,4.0,7.0,93,0.00,,---,0.00,VWS V14.01,2013-02-16 12:59:00,
2013-02-16 07:04:00,27.8,26.0,30.44,NW,314,3.0,7.0,93,0.00,,---,0.00,VWS V14.01,2013-02-16 13:04:00,
2013-02-16 07:09:00,27.9,26.1,30.44,NNW,328,5.0,7.0,93,0.00,,---,0.00,VWS V14.01,2013-02-16 13:09:00,
2013-02-16 07:14:00,27.1,25.4,30.44,NNW,330,5.0,7.0,93,0.00,,---,0.00,VWS V14.01,2013-02-16 13:14:00,
2013-02-16 07:19:00,27.1,25.4,30.44,NNW,330,5.0,7.0,93,0.00,,---,0.00,VWS V14.01,2013-02-16 13:19:00,
2013-02-16 07:25:00,27.1,25.4,30.44,NNW,330,5.0,7.0,93,0.00,,---,0.00,VWS V14.01,2013-02-16 13:25:00,
2013-02-16 07:30:00,27.1,25.4,30.44,NNW,330,5.0,7.0,93,0.00,,---,0.00,VWS V14.01,2013-02-16 13:30:00,
2013-02-16 07:35:00,27.1,25.4,30.43,NNW,330,5.0,5.0,93,0.00,,---,0.00,VWS V14.01,2013-02-16 13:35:00,
2013-02-16 07:40:00,27.1,25.4,30.44,NNW,330,5.0,5.0,93,0.00,,---,0.00,VWS V14.01,2013-02-16 13:40:00,
2013-02-16 07:45:00,27.1,25.4,30.44,NNW,330,5.0,5.0,93,0.00,,---,0.00,VWS V14.01,2013-02-16 13:45:00,
2013-02-16 07:50:00,27.1,25.4,30.44,NNW,330,5.0,5.0,93,0.00,,---,0.00,VWS V14.01,2013-02-16 13:50:00,
2013-02-16 07:55:00,27.1,25.4,30.44,NNW,330,5.0,5.0,93,0.00,,---,0.00,VWS V14.01,2013-02-16 13:55:00,
2013-02-16 08:00:00,27.1,25.4,30.44,NNW,330,5.0,5.0,93,0.00,,---,0.00,VWS V14.01,2013-02-16 14:00:00,
2013-02-16 08:05:00,27.1,25.4,30.44,NNW,330,5.0,5.0,93,0.00,,---,0.00,VWS V14.01,2013-02-16 14:05:00,
2013-02-16 08:11:00,27.1,25.4,30.44,NNW,330,5.0,5.0,93,0.00,,---,0.00,VWS V14.01,2013-02-16 14:11:00,
2013-02-16 08:16:00,27.1,25.4,30.44,NNW,330,5.0,5.0,93,0.00,,---,0.00,VWS V14.01,2013-02-16 14:16:00,
2013-02-16 08:21:00,27.1,25.4,30.44,NNW,330,5.0,5.0,93,0.00,,---,0.00,VWS V14.01,2013-02-16 14:21:00,
2013-02-16 08:26:00,27.1,25.4,30.44,NNW,330,5.0,5.0,93,0.00,,---,0.00,VWS V14.01,2013-02-16 14:26:00,
2013-02-16 08:31:00,27.1,25.4,30.44,NNW,330,5.0,5.0,93,0.00,,---,0.00,VWS V14.01,2013-02-16 14:31:00,
2013-02-16 08:36:00,27.1,25.4,30.44,NNW,330,5.0,5.0,93,0.00,,---,0.00,VWS V14.01,2013-02-16 14:36:00,
2013-02-16 08:41:00,27.1,25.4,30.44,NNW,330,5.0,5.0,93,0.00,,---,0.00,VWS V14.01,2013-02-16 14:41:00,
2013-02-16 08:47:00,27.1,25.4,30.44,NNW,330,5.0,5.0,93,0.00,,---,0.00,VWS V14.01,2013-02-16 14:47:00,
2013-02-16 08:52:00,27.1,25.4,30.44,NNW,330,5.0,5.0,93,0.00,,---,0.00,VWS V14.01,2013-02-16 14:52:00,
2013-02-16 08:57:00,29.8,28.3,30.44,WNW,295,2.0,6.0,94,0.00,,---,0.00,VWS V14.01,2013-02-16 14:57:00,
2013-02-16 09:02:00,29.9,28.4,30.44,NW,323,5.0,6.0,94,0.00,,---,0.00,VWS V14.01,2013-02-16 15:02:00,
2013-02-16 09:07:00,29.8,28.3,30.45,NW,316,2.0,6.0,94,0.00,,---,0.00,VWS V14.01,2013-02-16 15:07:00,
2013-02-16 09:12:00,30.2,28.7,30.45,NNW,327,4.0,6.0,94,0.00,,---,0.00,VWS V14.01,2013-02-16 15:12:00,
2013-02-16 09:17:00,30.0,28.5,30.45,NW,320,4.0,6.0,94,0.00,,---,0.00,VWS V14.01,2013-02-16 15:17:00,
2013-02-16 09:22:00,30.1,28.6,30.45,NNW,345,2.0,6.0,94,0.00,,---,0.00,VWS V14.01,2013-02-16 15:22:00,
2013-02-16 09:28:00,30.6,29.1,30.45,North,3,3.0,6.0,94,0.00,,---,0.00,VWS V14.01,2013-02-16 15:28:00,
2013-02-16 09:33:00,30.5,29.0,30.45,NNE,20,4.0,6.0,94,0.00,,---,0.00,VWS V14.01,2013-02-16 15:33:00,
2013-02-16 09:38:00,30.4,28.9,30.45,NNE,16,3.0,6.0,94,0.00,,---,0.00,VWS V14.01,2013-02-16 15:38:00,
2013-02-16 09:43:00,30.6,29.1,30.45,North,351,0.0,6.0,94,0.00,,---,0.00,VWS V14.01,2013-02-16 15:43:00,
2013-02-16 09:48:00,30.7,29.2,30.45,NNE,29,3.0,6.0,94,0.00,,---,0.00,VWS V14.01,2013-02-16 15:48:00,
2013-02-16 09:53:00,30.6,29.1,30.45,NE,45,2.0,6.0,94,0.00,,---,0.00,VWS V14.01,2013-02-16 15:53:00,
2013-02-16 09:58:00,30.6,29.1,30.45,NE,46,0.0,6.0,94,0.00,,---,0.00,VWS V14.01,2013-02-16 15:58:00,
2013-02-16 10:03:00,30.9,29.4,30.45,NE,53,1.0,1.0,94,0.00,,---,0.00,VWS V14.01,2013-02-16 16:03:00,
2013-02-16 10:09:00,31.0,29.5,30.44,East,96,4.0,5.0,94,0.00,,---,0.00,VWS V14.01,2013-02-16 16:09:00,
2013-02-16 10:14:00,31.0,29.5,30.44,East,89,0.0,5.0,94,0.00,,---,0.00,VWS V14.01,2013-02-16 16:14:00,
2013-02-16 10:19:00,31.3,29.8,30.44,SW,232,0.0,5.0,94,0.00,,---,0.00,VWS V14.01,2013-02-16 16:19:00,
2013-02-16 10:24:00,31.5,30.0,30.43,WNW,283,0.0,5.0,94,0.00,,---,0.00,VWS V14.01,2013-02-16 16:24:00,
2013-02-16 10:29:00,31.7,30.2,30.43,ESE,120,1.0,5.0,94,0.00,,---,0.00,VWS V14.01,2013-02-16 16:29:00,
2013-02-16 10:34:00,32.0,30.5,30.43,SW,218,1.0,4.0,94,0.00,,---,0.00,VWS V14.01,2013-02-16 16:34:00,
2013-02-16 10:39:00,32.3,30.8,30.42,SW,219,3.0,4.0,94,0.00,,---,0.00,VWS V14.01,2013-02-16 16:39:00,
2013-02-16 10:44:00,32.3,30.8,30.42,SSW,201,1.0,4.0,94,0.00,,---,0.00,VWS V14.01,2013-02-16 16:44:00,
2013-02-16 10:49:00,32.8,31.3,30.41,SE,138,4.0,4.0,94,0.00,,---,0.00,VWS V14.01,2013-02-16 16:49:00,
2013-02-16 10:55:00,33.3,31.8,30.41,SE,132,3.0,6.0,94,0.00,,---,0.00,VWS V14.01,2013-02-16 16:55:00,
2013-02-16 11:00:00,34.2,32.7,30.41,ESE,122,3.0,7.0,94,0.00,,---,0.00,VWS V14.01,2013-02-16 17:00:00,
2013-02-16 11:05:00,34.4,32.9,30.41,SSE,159,1.0,7.0,94,0.00,,---,0.00,VWS V14.01,2013-02-16 17:05:00,
2013-02-16 11:10:00,34.8,33.2,30.41,SE,132,1.0,7.0,94,0.00,,---,0.00,VWS V14.01,2013-02-16 17:10:00,
2013-02-16 11:15:00,35.4,33.8,30.41,SSE,150,6.0,7.0,94,0.00,,---,0.00,VWS V14.01,2013-02-16 17:15:00,
2013-02-16 11:20:00,36.1,34.5,30.40,SSW,196,2.0,7.0,94,0.00,,---,0.00,VWS V14.01,2013-02-16 17:20:00,
2013-02-16 11:25:00,37.0,35.4,30.40,South,184,2.0,7.0,94,0.00,,---,0.00,VWS V14.01,2013-02-16 17:25:00,
2013-02-16 11:30:00,37.7,36.1,30.40,SSW,194,2.0,7.0,94,0.00,,---,0.00,VWS V14.01,2013-02-16 17:30:00,
2013-02-16 11:35:00,38.4,36.8,30.40,SSW,208,2.0,6.0,94,0.00,,---,0.00,VWS V14.01,2013-02-16 17:35:00,
2013-02-16 11:41:00,39.1,37.5,30.39,SE,136,6.0,9.0,94,0.00,,---,0.00,VWS V14.01,2013-02-16 17:41:00,
2013-02-16 11:46:00,39.8,38.0,30.39,South,174,5.0,9.0,93,0.00,,---,0.00,VWS V14.01,2013-02-16 17:46:00,
2013-02-16 11:51:00,40.4,36.8,30.39,South,170,5.0,9.0,87,0.00,,---,0.00,VWS V14.01,2013-02-16 17:51:00,
2013-02-16 11:56:00,41.0,36.8,30.38,SE,143,6.0,10.0,85,0.00,,---,0.00,VWS V14.01,2013-02-16 17:56:00,
2013-02-16 12:01:00,41.6,36.5,30.38,SSE,155,9.0,11.0,82,0.00,,---,0.00,VWS V14.01,2013-02-16 18:01:00,
2013-02-16 12:06:00,41.9,36.2,30.38,South,183,8.0,11.0,80,0.00,,---,0.00,VWS V14.01,2013-02-16 18:06:00,
2013-02-16 12:11:00,42.6,36.2,30.37,South,177,6.0,11.0,78,0.00,,---,0.00,VWS V14.01,2013-02-16 18:11:00,
2013-02-16 12:16:00,42.8,35.8,30.37,South,172,5.0,11.0,76,0.00,,---,0.00,VWS V14.01,2013-02-16 18:16:00,
2013-02-16 12:22:00,43.3,35.6,30.36,East,101,3.0,11.0,74,0.00,,---,0.00,VWS V14.01,2013-02-16 18:22:00,
2013-02-16 12:27:00,43.7,35.6,30.36,SSE,165,5.0,11.0,73,0.00,,---,0.00,VWS V14.01,2013-02-16 18:27:00,
2013-02-16 12:32:00,43.9,35.5,30.36,SE,140,6.0,7.0,72,0.00,,---,0.00,VWS V14.01,2013-02-16 18:32:00,
2013-02-16 12:37:00,44.0,35.9,30.35,SSE,165,5.0,9.0,73,0.00,,---,0.00,VWS V14.01,2013-02-16 18:37:00,
2013-02-16 12:42:00,44.8,36.0,30.35,SE,124,5.0,10.0,71,0.00,,---,0.00,VWS V14.01,2013-02-16 18:42:00,
2013-02-16 12:47:00,45.9,35.6,30.35,SSW,208,4.0,10.0,67,0.00,,---,0.00,VWS V14.01,2013-02-16 18:47:00,
2013-02-16 12:52:00,46.1,35.4,30.34,SE,124,6.0,11.0,66,0.00,,---,0.00,VWS V14.01,2013-02-16 18:52:00,
2013-02-16 12:57:00,46.7,35.6,30.33,ESE,117,8.0,11.0,65,0.00,,---,0.00,VWS V14.01,2013-02-16 18:57:00,
2013-02-16 13:03:00,47.5,35.5,30.33,SW,222,4.0,5.0,63,0.00,,---,0.00,VWS V14.01,2013-02-16 19:03:00,
2013-02-16 13:08:00,47.7,35.3,30.32,SSE,149,6.0,11.0,62,0.00,,---,0.00,VWS V14.01,2013-02-16 19:08:00,
2013-02-16 13:13:00,48.1,35.7,30.32,SSW,200,8.0,11.0,62,0.00,,---,0.00,VWS V14.01,2013-02-16 19:13:00,
2013-02-16 13:18:00,48.4,35.2,30.31,SE,132,5.0,11.0,60,0.00,,---,0.00,VWS V14.01,2013-02-16 19:18:00,
2013-02-16 13:23:00,48.5,34.0,30.31,West,266,3.0,12.0,57,0.00,,---,0.00,VWS V14.01,2013-02-16 19:23:00,
2013-02-16 13:28:00,49.1,33.7,30.30,South,177,7.0,13.0,55,0.00,,---,0.00,VWS V14.01,2013-02-16 19:28:00,
2013-02-16 13:33:00,49.3,33.8,30.30,South,186,4.0,10.0,55,0.00,,---,0.00,VWS V14.01,2013-02-16 19:33:00,
2013-02-16 13:39:00,50.0,33.6,30.30,SW,217,7.0,14.0,53,0.00,,---,0.00,VWS V14.01,2013-02-16 19:39:00,
2013-02-16 13:44:00,50.4,33.5,30.29,SW,222,2.0,14.0,52,0.00,,---,0.00,VWS V14.01,2013-02-16 19:44:00,
2013-02-16 13:49:00,50.9,32.9,30.29,South,187,12.0,15.0,50,0.00,,---,0.00,VWS V14.01,2013-02-16 19:49:00,
2013-02-16 13:54:00,51.1,33.1,30.29,South,170,10.0,15.0,50,0.00,,---,0.00,VWS V14.01,2013-02-16 19:54:00,
2013-02-16 13:59:00,51.4,33.4,30.28,SW,219,8.0,16.0,50,0.00,,---,0.00,VWS V14.01,2013-02-16 19:59:00,
2013-02-16 14:04:00,51.7,33.7,30.28,SW,214,11.0,15.0,50,0.00,,---,0.00,VWS V14.01,2013-02-16 20:04:00,
2013-02-16 14:09:00,52.0,33.5,30.28,South,188,9.0,17.0,49,0.00,,---,0.00,VWS V14.01,2013-02-16 20:09:00,
2013-02-16 14:14:00,52.2,33.1,30.28,WNW,300,5.0,17.0,48,0.00,,---,0.00,VWS V14.01,2013-02-16 20:14:00,
2013-02-16 14:19:00,52.3,33.2,30.27,South,186,8.0,17.0,48,0.00,,---,0.00,VWS V14.01,2013-02-16 20:19:00,
2013-02-16 14:25:00,52.6,34.0,30.27,South,188,7.0,17.0,49,0.00,,---,0.00,VWS V14.01,2013-02-16 20:25:00,
2013-02-16 14:30:00,52.9,33.8,30.26,SSW,194,4.0,17.0,48,0.00,,---,0.00,VWS V14.01,2013-02-16 20:30:00,
2013-02-16 14:35:00,53.2,33.5,30.26,South,176,8.0,13.0,47,0.00,,---,0.00,VWS V14.01,2013-02-16 20:35:00,
2013-02-16 14:40:00,53.6,32.8,30.25,SSW,197,6.0,13.0,45,0.00,,---,0.00,VWS V14.01,2013-02-16 20:40:00,
2013-02-16 14:45:00,54.1,33.2,30.25,SSW,205,6.0,14.0,45,0.00,,---,0.00,VWS V14.01,2013-02-16 20:45:00,
2013-02-16 14:50:00,54.2,32.2,30.25,SSE,165,11.0,14.0,43,0.00,,---,0.00,VWS V14.01,2013-02-16 20:50:00,
2013-02-16 14:55:00,54.3,32.9,30.25,SW,217,11.0,15.0,44,0.00,,---,0.00,VWS V14.01,2013-02-16 20:55:00,
2013-02-16 15:00:00,54.5,32.5,30.24,SE,142,7.0,15.0,43,0.00,,---,0.00,VWS V14.01,2013-02-16 21:00:00,
2013-02-16 15:06:00,54.7,33.2,30.24,SSE,168,6.0,12.0,44,0.00,,---,0.00,VWS V14.01,2013-02-16 21:06:00,
2013-02-16 15:11:00,55.2,31.9,30.23,SW,229,3.0,15.0,41,0.00,,---,0.00,VWS V14.01,2013-02-16 21:11:00,
2013-02-16 15:16:00,55.5,32.8,30.23,South,176,7.0,15.0,42,0.00,,---,0.00,VWS V14.01,2013-02-16 21:16:00,
2013-02-16 15:21:00,55.8,32.5,30.22,SSW,201,11.0,15.0,41,0.00,,---,0.00,VWS V14.01,2013-02-16 21:21:00,
2013-02-16 15:26:00,56.0,32.7,30.22,SSW,208,12.0,15.0,41,0.00,,---,0.00,VWS V14.01,2013-02-16 21:26:00,
2013-02-16 15:31:00,55.9,32.0,30.22,SE,139,6.0,12.0,40,0.00,,---,0.00,VWS V14.01,2013-02-16 21:31:00,
2013-02-16 15:36:00,56.5,32.5,30.21,South,177,7.0,12.0,40,0.00,,---,0.00,VWS V14.01,2013-02-16 21:36:00,
2013-02-16 15:42:00,56.9,32.8,30.21,South,181,5.0,12.0,40,0.00,,---,0.00,VWS V14.01,2013-02-16 21:42:00,
2013-02-16 15:47:00,57.0,33.5,30.21,South,171,5.0,12.0,41,0.00,,---,0.00,VWS V14.01,2013-02-16 21:47:00,
2013-02-16 15:52:00,57.1,31.8,30.20,SSE,162,7.0,12.0,38,0.00,,---,0.00,VWS V14.01,2013-02-16 21:52:00,
2013-02-16 15:57:00,57.3,32.6,30.20,SSW,211,7.0,12.0,39,0.00,,---,0.00,VWS V14.01,2013-02-16 21:57:00,
2013-02-16 16:02:00,57.4,32.0,30.20,SSW,205,5.0,10.0,38,0.00,,---,0.00,VWS V14.01,2013-02-16 22:02:00,
2013-02-16 16:07:00,57.5,31.5,30.20,SSW,195,13.0,13.0,37,0.00,,---,0.00,VWS V14.01,2013-02-16 22:07:00,
2013-02-16 16:12:00,57.7,31.6,30.19,South,184,9.0,13.0,37,0.00,,---,0.00,VWS V14.01,2013-02-16 22:12:00,
2013-02-16 16:18:00,57.9,32.5,30.19,SW,217,10.0,13.0,38,0.00,,---,0.00,VWS V14.01,2013-02-16 22:18:00,
2013-02-16 16:23:00,57.9,32.5,30.19,South,184,9.0,13.0,38,0.00,,---,0.00,VWS V14.01,2013-02-16 22:23:00,
2013-02-16 16:28:00,58.1,32.0,30.19,SSE,167,5.0,13.0,37,0.00,,---,0.00,VWS V14.01,2013-02-16 22:28:00,
2013-02-16 16:33:00,58.0,31.9,30.19,SSW,195,4.0,10.0,37,0.00,,---,0.00,VWS V14.01,2013-02-16 22:33:00,
2013-02-16 16:38:00,58.2,32.7,30.18,SSE,158,8.0,13.0,38,0.00,,---,0.00,VWS V14.01,2013-02-16 22:38:00,
2013-02-16 16:43:00,57.9,32.5,30.18,South,181,8.0,14.0,38,0.00,,---,0.00,VWS V14.01,2013-02-16 22:43:00,
2013-02-16 16:49:00,57.9,31.8,30.18,South,174,9.0,14.0,37,0.00,,---,0.00,VWS V14.01,2013-02-16 22:49:00,
2013-02-16 16:54:00,58.2,30.7,30.17,SSW,198,5.0,14.0,35,0.00,,---,0.00,VWS V14.01,2013-02-16 22:54:00,
2013-02-16 16:59:00,58.2,31.4,30.17,SSW,198,4.0,14.0,36,0.00,,---,0.00,VWS V14.01,2013-02-16 22:59:00,
2013-02-16 17:04:00,58.0,31.2,30.17,SSE,150,8.0,12.0,36,0.00,,---,0.00,VWS V14.01,2013-02-16 23:04:00,
2013-02-16 17:09:00,58.0,31.2,30.16,SE,136,6.0,12.0,36,0.00,,---,0.00,VWS V14.01,2013-02-16 23:09:00,
2013-02-16 17:14:00,58.2,30.7,30.16,SSW,195,7.0,12.0,35,0.00,,---,0.00,VWS V14.01,2013-02-16 23:14:00,
2013-02-16 17:19:00,58.4,30.2,30.16,South,181,7.0,12.0,34,0.00,,---,0.00,VWS V14.01,2013-02-16 23:19:00,
2013-02-16 17:24:00,58.5,30.2,30.15,SSE,156,6.0,12.0,34,0.00,,---,0.00,VWS V14.01,2013-02-16 23:24:00,
2013-02-16 17:30:00,58.3,30.8,30.15,SSE,159,8.0,12.0,35,0.00,,---,0.00,VWS V14.01,2013-02-16 23:30:00,
2013-02-16 17:35:00,58.1,31.3,30.15,South,176,7.0,9.0,36,0.00,,---,0.00,VWS V14.01,2013-02-16 23:35:00,
2013-02-16 17:40:00,57.8,31.7,30.15,SSE,168,8.0,10.0,37,0.00,,---,0.00,VWS V14.01,2013-02-16 23:40:00,
2013-02-16 17:45:00,57.4,32.0,30.15,SSE,165,7.0,10.0,38,0.00,,---,0.00,VWS V14.01,2013-02-16 23:45:00,
2013-02-16 17:50:00,57.1,31.8,30.15,SE,145,4.0,11.0,38,0.00,,---,0.00,VWS V14.01,2013-02-16 23:50:00,
2013-02-16 17:55:00,56.6,32.0,30.15,SE,135,4.0,11.0,39,0.00,,---,0.00,VWS V14.01,2013-02-16 23:55:00,
2013-02-16 18:00:00,56.2,32.8,30.15,SSE,165,6.0,11.0,41,0.00,,---,0.00,VWS V14.01,2013-02-17 00:00:00,
2013-02-16 18:06:00,55.6,32.9,30.15,SSE,153,6.0,9.0,42,0.00,,---,0.00,VWS V14.01,2013-02-17 00:06:00,
2013-02-16 18:11:00,55.0,32.9,30.15,SE,134,5.0,9.0,43,0.00,,---,0.00,VWS V14.01,2013-02-17 00:11:00,
2013-02-16 18:16:00,54.3,32.9,30.14,SSE,166,4.0,9.0,44,0.00,,---,0.00,VWS V14.01,2013-02-17 00:16:00,
2013-02-16 18:21:00,53.5,33.2,30.14,SE,139,7.0,9.0,46,0.00,,---,0.00,VWS V14.01,2013-02-17 00:21:00,
2013-02-16 18:26:00,53.0,32.8,30.14,SSE,150,4.0,9.0,46,0.00,,---,0.00,VWS V14.01,2013-02-17 00:26:00,
2013-02-16 18:31:00,52.6,32.4,30.14,SE,132,8.0,10.0,46,0.00,,---,0.00,VWS V14.01,2013-02-17 00:31:00,
2013-02-16 18:36:00,52.5,32.3,30.14,SE,138,7.0,10.0,46,0.00,,---,0.00,VWS V14.01,2013-02-17 00:36:00,
2013-02-16 18:41:00,52.3,32.2,30.14,SSE,159,8.0,10.0,46,0.00,,---,0.00,VWS V14.01,2013-02-17 00:41:00,
2013-02-16 18:47:00,51.8,31.7,30.14,SSE,149,8.0,10.0,46,0.00,,---,0.00,VWS V14.01,2013-02-17 00:47:00,
2013-02-16 18:52:00,51.5,31.4,30.14,SE,136,6.0,10.0,46,0.00,,---,0.00,VWS V14.01,2013-02-17 00:52:00,
2013-02-16 18:57:00,51.4,31.3,30.14,SSE,155,7.0,10.0,46,0.00,,---,0.00,VWS V14.01,2013-02-17 00:57:00,
2013-02-16 19:02:00,51.3,31.2,30.14,SE,143,5.0,7.0,46,0.00,,---,0.00,VWS V14.01,2013-02-17 01:02:00,
2013-02-16 19:07:00,50.8,30.8,30.14,SSE,149,5.0,8.0,46,0.00,,---,0.00,VWS V14.01,2013-02-17 01:07:00,
2013-02-16 19:12:00,50.9,30.9,30.14,SE,132,5.0,8.0,46,0.00,,---,0.00,VWS V14.01,2013-02-17 01:12:00,
2013-02-16 19:17:00,51.2,30.6,30.14,SE,132,7.0,9.0,45,0.00,,---,0.00,VWS V14.01,2013-02-17 01:17:00,
2013-02-16 19:23:00,50.9,30.9,30.14,SE,141,5.0,9.0,46,0.00,,---,0.00,VWS V14.01,2013-02-17 01:23:00,
2013-02-16 19:28:00,50.3,30.9,30.14,SE,129,5.0,9.0,47,0.00,,---,0.00,VWS V14.01,2013-02-17 01:28:00,
2013-02-16 19:33:00,50.0,31.1,30.14,SE,132,6.0,8.0,48,0.00,,---,0.00,VWS V14.01,2013-02-17 01:33:00,
2013-02-16 19:38:00,49.6,31.7,30.14,SE,127,4.0,9.0,50,0.00,,---,0.00,VWS V14.01,2013-02-17 01:38:00,
2013-02-16 19:43:00,48.6,31.3,30.14,ESE,122,7.0,9.0,51,0.00,,---,0.00,VWS V14.01,2013-02-17 01:43:00,
2013-02-16 19:48:00,48.3,31.0,30.14,ESE,120,6.0,9.0,51,0.00,,---,0.00,VWS V14.01,2013-02-17 01:48:00,
2013-02-16 19:53:00,48.1,31.3,30.14,SE,143,2.0,9.0,52,0.00,,---,0.00,VWS V14.01,2013-02-17 01:53:00,
2013-02-16 19:59:00,48.1,30.8,30.14,SE,136,5.0,9.0,51,0.00,,---,0.00,VWS V14.01,2013-02-17 01:59:00,
2013-02-16 20:04:00,48.3,31.0,30.14,SE,145,5.0,7.0,51,0.00,,---,0.00,VWS V14.01,2013-02-17 02:04:00,
2013-02-16 20:09:00,48.4,31.1,30.13,SE,135,5.0,9.0,51,0.00,,---,0.00,VWS V14.01,2013-02-17 02:09:00,
2013-02-16 20:14:00,48.7,30.9,30.13,SE,138,6.0,9.0,50,0.00,,---,0.00,VWS V14.01,2013-02-17 02:14:00,
2013-02-16 20:19:00,48.9,30.6,30.13,ESE,120,5.0,10.0,49,0.00,,---,0.00,VWS V14.01,2013-02-17 02:19:00,
2013-02-16 20:24:00,49.0,30.7,30.13,SE,139,4.0,10.0,49,0.00,,---,0.00,VWS V14.01,2013-02-17 02:24:00,
2013-02-16 20:29:00,48.9,30.6,30.13,SE,142,4.0,10.0,49,0.00,,---,0.00,VWS V14.01,2013-02-17 02:29:00,
2013-02-16 20:34:00,48.4,31.1,30.13,SE,133,3.0,8.0,51,0.00,,---,0.00,VWS V14.01,2013-02-17 02:34:00,
2013-02-16 20:40:00,47.7,31.0,30.12,SE,145,4.0,8.0,52,0.00,,---,0.00,VWS V14.01,2013-02-17 02:40:00,
2013-02-16 20:45:00,47.7,31.0,30.12,SSE,152,6.0,9.0,52,0.00,,---,0.00,VWS V14.01,2013-02-17 02:45:00,
2013-02-16 20:50:00,47.7,31.0,30.12,SE,127,7.0,9.0,52,0.00,,---,0.00,VWS V14.01,2013-02-17 02:50:00,
2013-02-16 20:55:00,47.9,30.7,30.12,SE,136,4.0,9.0,51,0.00,,---,0.00,VWS V14.01,2013-02-17 02:55:00,
2013-02-16 21:00:00,48.2,30.5,30.11,SE,139,5.0,9.0,50,0.00,,---,0.00,VWS V14.01,2013-02-17 03:00:00,
2013-02-16 21:05:00,48.4,30.6,30.11,SE,124,5.0,8.0,50,0.00,,---,0.00,VWS V14.01,2013-02-17 03:05:00,
2013-02-16 21:10:00,48.5,30.2,30.11,SSE,150,5.0,10.0,49,0.00,,---,0.00,VWS V14.01,2013-02-17 03:10:00,
2013-02-16 21:15:00,48.6,30.3,30.11,SE,145,7.0,10.0,49,0.00,,---,0.00,VWS V14.01,2013-02-17 03:15:00,
2013-02-16 21:20:00,48.7,30.4,30.11,ESE,115,8.0,10.0,49,0.00,,---,0.00,VWS V14.01,2013-02-17 03:20:00,
2013-02-16 21:26:00,48.2,30.5,30.11,ESE,123,7.0,10.0,50,0.00,,---,0.00,VWS V14.01,2013-02-17 03:26:00,
2013-02-16 21:31:00,47.7,30.5,30.11,SE,131,6.0,7.0,51,0.00,,---,0.00,VWS V14.01,2013-02-17 03:31:00,
2013-02-16 21:36:00,47.3,30.6,30.11,SE,128,6.0,9.0,52,0.00,,---,0.00,VWS V14.01,2013-02-17 03:36:00,
2013-02-16 21:41:00,47.1,30.4,30.11,SSE,156,4.0,10.0,52,0.00,,---,0.00,VWS V14.01,2013-02-17 03:41:00,
2013-02-16 21:46:00,47.2,30.5,30.11,SSE,167,3.0,10.0,52,0.00,,---,0.00,VWS V14.01,2013-02-17 03:46:00,
2013-02-16 21:51:00,47.0,30.3,30.12,SSW,207,3.0,10.0,52,0.00,,---,0.00,VWS V14.01,2013-02-17 03:51:00,
2013-02-16 21:56:00,46.0,30.3,30.12,SSW,194,1.0,10.0,54,0.00,,---,0.00,VWS V14.01,2013-02-17 03:56:00,
2013-02-16 22:01:00,45.5,30.7,30.12,SW,214,2.0,3.0,56,0.00,,---,0.00,VWS V14.01,2013-02-17 04:01:00,
2013-02-16 22:06:00,44.7,30.9,30.12,SSE,158,2.0,4.0,58,0.00,,---,0.00,VWS V14.01,2013-02-17 04:06:00,
2013-02-16 22:12:00,44.0,30.6,30.12,SSE,165,2.0,4.0,59,0.00,,---,0.00,VWS V14.01,2013-02-17 04:12:00,
2013-02-16 22:17:00,44.0,30.6,30.12,SSE,153,3.0,4.0,59,0.00,,---,0.00,VWS V14.01,2013-02-17 04:17:00,
2013-02-16 22:22:00,43.9,30.9,30.12,South,170,4.0,7.0,60,0.00,,---,0.00,VWS V14.01,2013-02-17 04:22:00,
2013-02-16 22:27:00,43.7,30.7,30.11,SSE,153,4.0,7.0,60,0.00,,---,0.00,VWS V14.01,2013-02-17 04:27:00,
2013-02-16 22:32:00,43.2,30.7,30.11,SSE,156,5.0,7.0,61,0.00,,---,0.00,VWS V14.01,2013-02-17 04:32:00,
2013-02-16 22:37:00,43.6,31.0,30.11,South,171,2.0,7.0,61,0.00,,---,0.00,VWS V14.01,2013-02-17 04:37:00,
2013-02-16 22:42:00,43.7,30.7,30.11,SSW,201,3.0,7.0,60,0.00,,---,0.00,VWS V14.01,2013-02-17 04:42:00,
2013-02-16 22:47:00,44.0,30.6,30.11,South,183,2.0,7.0,59,0.00,,---,0.00,VWS V14.01,2013-02-17 04:47:00,
2013-02-16 22:53:00,44.1,30.7,30.11,SSW,203,1.0,7.0,59,0.00,,---,0.00,VWS V14.01,2013-02-17 04:53:00,
2013-02-16 22:58:00,44.0,30.6,30.11,SSE,158,3.0,7.0,59,0.00,,---,0.00,VWS V14.01,2013-02-17 04:58:00,
2013-02-16 23:00:00,44.1,30.7,30.11,South,170,4.0,7.0,59,0.00,,---,0.00,VWS V14.01,2013-02-17 05:00:00,
2013-02-16 23:01:00,44.1,30.7,30.11,SE,137,4.0,7.0,59,0.00,,---,0.00,VWS V14.01,2013-02-17 05:01:00,
2013-02-16 23:06:00,44.5,30.7,30.11,SE,134,6.0,8.0,58,0.00,,---,0.00,VWS V14.01,2013-02-17 05:06:00,
2013-02-16 23:11:00,44.8,30.5,30.11,SE,137,6.0,10.0,57,0.00,,---,0.00,VWS V14.01,2013-02-17 05:11:00,
2013-02-16 23:16:00,44.9,30.6,30.10,SE,139,5.0,10.0,57,0.00,,---,0.00,VWS V14.01,2013-02-17 05:16:00,
2013-02-16 23:22:00,44.8,30.5,30.10,SSW,193,2.0,10.0,57,0.00,,---,0.00,VWS V14.01,2013-02-17 05:22:00,
2013-02-16 23:27:00,44.1,30.7,30.10,South,183,3.0,10.0,59,0.00,,---,0.00,VWS V14.01,2013-02-17 05:27:00,
2013-02-16 23:32:00,43.7,30.7,30.09,South,181,3.0,5.0,60,0.00,,---,0.00,VWS V14.01,2013-02-17 05:32:00,
2013-02-16 23:37:00,43.1,30.6,30.09,South,191,2.0,5.0,61,0.00,,---,0.00,VWS V14.01,2013-02-17 05:37:00,
2013-02-16 23:42:00,42.4,30.7,30.09,SE,144,4.0,5.0,63,0.00,,---,0.00,VWS V14.01,2013-02-17 05:42:00,
2013-02-16 23:47:00,42.5,30.8,30.09,SE,137,6.0,8.0,63,0.00,,---,0.00,VWS V14.01,2013-02-17 05:47:00,
2013-02-16 23:52:00,43.7,30.7,30.09,SSE,163,5.0,9.0,60,0.00,,---,0.00,VWS V14.01,2013-02-17 05:52:00,
2013-02-16 23:57:00,44.0,30.6,30.09,SSE,159,6.0,9.0,59,0.00,,---,0.00,VWS V14.01,2013-02-17 05:57:00,